Time;durP1;ratioP1;P1;durP2;ratioP2;P2;SDS_P1;SDS_P2;PMS_P1;PMS_P2;Temp;Humidity;BMP_temperature;BMP_pressure;BME280_temperature;BME280_humidity;BME280_pressure;Samples;Min_cycle;Max_cycle;Signal;HPM_P1;HPM_P2
2022/12/19 00:01:00;;;;;;;;;;;52.00;2227.20;;;;;;4841578;29;20044;-87
2022/12/19 00:03:26;;;;;;;164.38;63.90;;;52.00;2227.20;;;;;;4859771;29;19967;-84
2022/12/19 00:05:51;;;;;;;;;;;52.00;2227.20;;;;;;4842885;29;20061;-86
2022/12/19 00:08:17;;;;;;;209.73;75.03;;;52.00;2227.20;;;;;;4854143;29;19912;-82
2022/12/19 00:10:42;;;;;;;;;;;52.00;2227.20;;;;;;4847723;29;20040;-82
2022/12/19 00:13:08;;;;;;;131.43;51.58;;;52.00;2227.20;;;;;;4843244;29;19913;-82
2022/12/19 00:15:34;;;;;;;;;;;51.90;2227.20;;;;;;4849157;29;20038;-83
2022/12/19 00:18:00;;;;;;;142.05;54.03;;;76.80;2227.20;;;;;;4845849;29;19920;-86
2022/12/19 00:20:25;;;;;;;;;;;51.90;2227.20;;;;;;4847908;29;20033;-88
2022/12/19 00:22:51;;;;;;;117.35;48.33;;;51.90;2227.20;;;;;;4847083;29;19935;-83
2022/12/19 00:25:17;;;;;;;;;;;51.80;2227.20;;;;;;4836707;29;20499;-88
2022/12/19 00:27:42;;;;;;;128.25;49.95;;;51.70;2227.20;;;;;;4847857;29;19915;-88
2022/12/19 00:30:09;;;;;;;;;;;51.70;2227.20;;;;;;4846426;29;20036;-87
2022/12/19 00:32:36;;;;;;;88.23;39.60;;;51.70;2227.20;;;;;;4847091;29;19977;-83
2022/12/19 00:35:01;;;;;;;114.15;43.85;;;51.70;2227.20;;;;;;4846660;29;20029;-80
2022/12/19 00:37:27;;;;;;;;;;;51.60;2227.20;;;;;;4862216;29;20525;-80
2022/12/19 00:39:53;;;;;;;110.07;45.08;;;51.70;2227.20;;;;;;4836462;29;19916;-80
2022/12/19 00:42:18;;;;;;;;;;;51.60;2227.20;;;;;;4843469;29;20109;-84
2022/12/19 00:44:44;;;;;;;114.35;42.83;;;51.40;2227.20;;;;;;4849530;29;20300;-81
2022/12/19 00:47:09;;;;;;;;;;;26.50;2201.60;;;;;;4848133;29;20066;-82
2022/12/19 00:49:35;;;;;;;105.78;39.95;;;26.40;2201.60;;;;;;4853985;29;19916;-82
2022/12/19 00:52:01;;;;;;;;;;;26.40;2201.60;;;;;;4847973;29;20120;-83
2022/12/19 00:54:26;;;;;;;113.95;40.35;;;26.30;2201.60;;;;;;4843246;29;19935;-83
2022/12/19 00:56:52;;;;;;;;;;;26.20;2201.60;;;;;;4845903;29;20052;-83
2022/12/19 00:59:18;;;;;;;110.47;42.53;;;26.10;2201.60;;;;;;4861343;29;20075;-83
2022/12/19 01:01:43;;;;;;;;;;;26.00;2201.60;;;;;;4845229;29;20038;-83
2022/12/19 01:04:12;;;;;;;115.63;39.85;;;26.00;2201.60;;;;;;4848698;29;19998;-83
2022/12/19 01:06:38;;;;;;;116.53;43.97;;;25.90;2201.60;;;;;;4848150;29;20032;-84
2022/12/19 01:09:07;;;;;;;;;;;25.80;2201.60;;;;;;4848124;29;20112;-83
2022/12/19 01:14:17;;;;;;;131.43;43.10;;;25.80;2201.60;;;;;;4860831;29;20390;-80
2022/12/19 01:16:42;;;;;;;;;;;25.80;2201.60;;;;;;4862715;29;20053;-81
2022/12/19 01:19:08;;;;;;;133.00;43.78;;;25.60;2201.60;;;;;;4837841;29;19920;-83
2022/12/19 01:21:34;;;;;;;;;;;25.60;2201.60;;;;;;4842881;29;20057;-82
2022/12/19 01:24:01;;;;;;;142.30;44.05;;;25.70;2201.60;;;;;;4855039;29;19931;-83
2022/12/19 01:26:26;;;;;;;134.07;46.72;;;25.70;2201.60;;;;;;4841469;29;20083;-82
2022/12/19 01:28:52;;;;;;;;;;;25.80;2201.60;;;;;;4847468;29;20037;-80
2022/12/19 01:31:19;;;;;;;120.75;42.08;;;25.90;2201.60;;;;;;4837804;29;20445;-82
2022/12/19 01:33:44;;;;;;;118.97;44.42;;;25.80;2201.60;;;;;;4856349;29;20022;-81
2022/12/19 01:36:10;;;;;;;;;;;25.80;2201.60;;;;;;4846656;29;20105;-82
2022/12/19 01:38:36;;;;;;;125.07;40.65;;;26.00;2201.60;;;;;;4846997;29;20379;-81
2022/12/19 01:41:02;;;;;;;103.07;40.88;;;25.90;2201.60;;;;;;4846861;29;20391;-81
2022/12/19 01:43:31;;;;;;;128.23;40.47;;;26.00;2201.60;;;;;;4843452;29;20057;-82
2022/12/19 01:45:59;;;;;;;116.70;40.55;;;25.90;2201.60;;;;;;4846827;29;20029;-83
2022/12/19 01:48:38;;;;;;;124.40;42.90;;;26.00;2201.60;;;;;;4854470;29;20149;-83
2022/12/19 01:51:18;;;;;;;119.78;41.53;;;26.00;2201.60;;;;;;4834991;29;20104;-84
2022/12/19 01:53:57;;;;;;;119.50;39.15;;;25.90;2201.60;;;;;;4840906;29;20025;-80
2022/12/19 01:56:28;;;;;;;128.77;41.33;;;25.80;2201.60;;;;;;4846574;29;20084;-81
2022/12/19 01:58:57;;;;;;;120.10;39.75;;;25.70;2201.60;;;;;;4844235;29;20038;-82
2022/12/19 02:01:24;;;;;;;115.10;41.03;;;25.90;2201.60;;;;;;4844928;29;20030;-83
2022/12/19 02:03:50;;;;;;;102.68;40.80;;;25.90;2201.60;;;;;;4844611;29;20025;-80
2022/12/19 02:06:17;;;;;;;101.93;39.10;;;25.90;2201.60;;;;;;4854705;29;20033;-81
2022/12/19 02:08:46;;;;;;;104.93;41.08;;;25.90;2201.60;;;;;;4852532;29;20494;-81
2022/12/19 02:11:12;;;;;;;100.57;39.85;;;25.90;2201.60;;;;;;4855919;29;20136;-81
2022/12/19 02:13:37;;;;;;;;;;;25.90;2201.60;;;;;;4854356;29;20427;-83
2022/12/19 02:16:38;;;;;;;101.00;37.97;;;25.90;2201.60;;;;;;4854213;29;20007;-83
2022/12/19 02:19:41;;;;;;;129.98;40.35;;;25.80;2201.60;;;;;;4852116;29;20042;-79
2022/12/19 02:22:22;;;;;;;114.03;39.95;;;25.80;2201.60;;;;;;4862273;29;20037;-80
2022/12/19 02:24:50;;;;;;;107.47;40.17;;;25.80;2201.60;;;;;;4851523;29;20022;-83
2022/12/19 02:27:48;;;;;;;112.22;40.28;;;25.90;2201.60;;;;;;4862676;29;20022;-82
2022/12/19 02:30:44;;;;;;;109.13;39.85;;;25.80;2201.60;;;;;;4867745;29;20475;-83
2022/12/19 02:33:16;;;;;;;105.20;42.38;;;25.80;2201.60;;;;;;4840829;29;20030;-83
2022/12/19 02:35:44;;;;;;;102.65;41.58;;;25.80;2201.60;;;;;;4852297;29;20021;-80
2022/12/19 02:38:16;;;;;;;97.50;38.58;;;25.80;2201.60;;;;;;4853484;29;20042;-83
2022/12/19 02:40:48;;;;;;;92.30;40.60;;;25.80;2201.60;;;;;;4836554;29;20483;-83
2022/12/19 02:43:17;;;;;;;91.03;38.75;;;25.70;2201.60;;;;;;4848970;29;20052;-83
2022/12/19 02:45:43;;;;;;;108.32;38.08;;;25.70;2201.60;;;;;;4837750;29;20062;-80
2022/12/19 02:48:10;;;;;;;90.55;37.15;;;25.70;2201.60;;;;;;4835537;29;20056;-80
2022/12/19 02:50:44;;;;;;;101.50;39.20;;;25.60;2201.60;;;;;;4851082;29;20041;-81
2022/12/19 02:53:12;;;;;;;92.78;37.80;;;25.70;2201.60;;;;;;4855910;29;20036;-83
2022/12/19 02:56:09;;;;;;;97.78;39.55;;;25.70;2201.60;;;;;;4850689;29;20026;-80
2022/12/19 02:58:54;;;;;;;90.20;32.75;;;25.70;2201.60;;;;;;4836105;29;20061;-83
2022/12/19 03:01:41;;;;;;;97.15;37.83;;;0.90;2201.60;;;;;;4844237;29;20032;-83
2022/12/19 03:04:16;;;;;;;87.72;34.53;;;0.90;2201.60;;;;;;4835139;29;20050;-83
2022/12/19 03:06:53;;;;;;;86.35;36.88;;;0.90;2201.60;;;;;;4854336;29;20029;-83
2022/12/19 03:09:27;;;;;;;81.22;35.78;;;0.90;2201.60;;;;;;4852238;29;20105;-83
2022/12/19 03:12:01;;;;;;;97.82;39.65;;;25.60;2201.60;;;;;;4853042;29;20190;-83
2022/12/19 03:14:29;;;;;;;91.70;37.53;;;25.60;2201.60;;;;;;4853723;29;20065;-83
2022/12/19 03:16:55;;;;;;;97.40;39.80;;;25.70;2201.60;;;;;;4834596;29;20053;-80
2022/12/19 03:19:21;;;;;;;;;;;25.60;2201.60;;;;;;4836668;29;20041;-79
2022/12/19 03:21:48;;;;;;;92.70;37.60;;;25.60;2201.60;;;;;;4852173;29;20357;-81
2022/12/19 03:24:15;;;;;;;92.82;38.00;;;0.90;2201.60;;;;;;4847996;29;20032;-83
2022/12/19 03:27:20;;;;;;;86.53;37.22;;;0.90;2201.60;;;;;;4852971;29;20072;-83
2022/12/19 03:30:03;;;;;;;92.03;40.15;;;25.60;2201.60;;;;;;4769954;30;20028;-79
2022/12/19 03:32:30;;;;;;;96.78;38.95;;;0.90;2201.60;;;;;;4778983;30;20036;-83
2022/12/19 03:35:02;;;;;;;100.55;41.55;;;0.90;2201.60;;;;;;4781465;30;20067;-83
2022/12/19 03:37:32;;;;;;;110.28;41.50;;;0.90;2201.60;;;;;;4768689;30;20074;-79
2022/12/19 03:40:06;;;;;;;92.22;40.47;;;0.80;2201.60;;;;;;4767277;30;20130;-80
2022/12/19 03:45:36;;;;;;;91.00;40.85;;;0.80;2201.60;;;;;;4777630;30;20051;-83
2022/12/19 03:48:07;;;;;;;90.40;38.70;;;0.90;2201.60;;;;;;4779114;30;20064;-83
2022/12/19 03:50:58;;;;;;;99.20;41.83;;;0.90;2201.60;;;;;;4778821;30;20043;-81
2022/12/19 03:53:29;;;;;;;92.05;39.55;;;0.90;2201.60;;;;;;4769061;30;20137;-81
2022/12/19 03:56:08;;;;;;;101.90;42.38;;;0.90;2201.60;;;;;;4778625;30;20031;-82
2022/12/19 03:58:39;;;;;;;103.50;40.20;;;0.90;2201.60;;;;;;4766313;30;20109;-82
2022/12/19 04:01:05;;;;;;;84.72;37.42;;;0.40;2201.60;;;;;;4768592;30;20065;-79
2022/12/19 04:03:32;;;;;;;91.13;42.97;;;0.20;2201.60;;;;;;4793356;29;20038;-83
2022/12/19 04:06:00;;;;;;;109.45;42.97;;;0.10;2201.60;;;;;;4826387;29;20048;-81
2022/12/19 04:08:27;;;;;;;108.15;43.15;;;0.20;2201.60;;;;;;4826420;29;20026;-83
2022/12/19 04:10:58;;;;;;;104.03;44.22;;;0.30;2201.60;;;;;;4826525;29;20041;-81
2022/12/19 04:13:34;;;;;;;105.38;49.05;;;0.40;2201.60;;;;;;4826315;29;20084;-81
2022/12/19 04:16:21;;;;;;;119.15;49.38;;;0.30;2201.60;;;;;;4842229;29;20033;-83
2022/12/19 04:18:53;;;;;;;99.40;44.88;;;0.20;2201.60;;;;;;4826019;29;20153;-83
2022/12/19 04:21:43;;;;;;;120.18;48.50;;;0.10;2201.60;;;;;;4825796;29;20030;-79
2022/12/19 04:24:18;;;;;;;109.82;46.20;;;0.10;2201.60;;;;;;4828385;29;20036;-82
2022/12/19 04:26:47;;;;;;;94.15;44.55;;;0.30;2201.60;;;;;;4829707;29;20069;-79
2022/12/19 04:29:14;;;;;;;109.13;43.88;;;0.10;2201.60;;;;;;4829610;29;20533;-84
2022/12/19 04:31:40;;;;;;;113.05;43.95;;;12.90;2201.60;;;;;;4829684;29;20037;-82
2022/12/19 04:34:06;;;;;;;97.20;43.22;;;13.10;2201.60;;;;;;4829546;29;20145;-84
2022/12/19 04:36:31;;;;;;;;;;;13.20;2201.60;;;;;;4829779;29;20046;-79
2022/12/19 04:38:57;;;;;;;102.45;39.92;;;13.30;2201.60;;;;;;4828874;29;19957;-80
2022/12/19 04:41:22;;;;;;;;;;;13.50;2201.60;;;;;;4829506;29;20498;-82
2022/12/19 04:43:48;;;;;;;114.20;43.40;;;13.50;2201.60;;;;;;4828982;29;19909;-82
2022/12/19 04:46:14;;;;;;;;;;;13.70;2201.60;;;;;;4829252;29;20038;-85
2022/12/19 04:48:40;;;;;;;135.25;49.65;;;38.40;2201.60;;;;;;4828136;29;19988;-80
2022/12/19 04:51:05;;;;;;;;;;;38.40;2201.60;;;;;;4845632;29;20037;-84
2022/12/19 04:53:31;;;;;;;134.63;49.38;;;38.40;2201.60;;;;;;4829256;29;19908;-82
2022/12/19 04:56:02;;;;;;;143.95;52.38;;;38.50;2201.60;;;;;;4828834;29;20063;-81
2022/12/19 04:58:28;;;;;;;135.05;46.40;;;38.50;2201.60;;;;;;4829148;29;20058;-84
2022/12/19 05:00:54;;;;;;;;;;;13.70;2201.60;;;;;;4845219;29;20038;-82
2022/12/19 05:03:20;;;;;;;113.10;45.22;;;13.60;2201.60;;;;;;4829177;29;19964;-81
2022/12/19 05:05:45;;;;;;;;;;;13.50;2201.60;;;;;;4829004;29;20038;-84
2022/12/19 05:08:11;;;;;;;121.43;42.72;;;13.40;2201.60;;;;;;4828875;29;19969;-84
2022/12/19 05:10:36;;;;;;;;;;;13.40;2201.60;;;;;;4845628;29;20030;-82
2022/12/19 05:13:02;;;;;;;124.65;45.10;;;13.20;2201.60;;;;;;4828769;29;19972;-79
2022/12/19 05:15:28;;;;;;;;;;;13.10;2201.60;;;;;;4829381;29;20037;-84
2022/12/19 05:17:53;;;;;;;119.50;43.78;;;13.00;2201.60;;;;;;4828630;29;20322;-81
2022/12/19 05:20:19;;;;;;;;;;;12.90;2201.60;;;;;;4829074;29;20068;-83
2022/12/19 05:22:44;;;;;;;137.48;45.70;;;12.90;2201.60;;;;;;4828410;29;19909;-79
2022/12/19 05:25:10;;;;;;;;;;;12.90;2201.60;;;;;;4829111;29;20066;-84
2022/12/19 05:27:36;;;;;;;114.28;46.08;;;12.90;2201.60;;;;;;4828168;29;19916;-84
2022/12/19 05:30:01;;;;;;;;;;;0.00;2201.60;;;;;;4828824;29;20030;-80
2022/12/19 05:32:31;;;;;;;118.60;47.85;;;0.20;2201.60;;;;;;4828826;29;19916;-84
2022/12/19 05:34:56;;;;;;;136.02;53.10;;;0.30;2201.60;;;;;;4827427;29;20045;-82
2022/12/19 05:37:22;;;;;;;;;;;0.40;2201.60;;;;;;4828856;29;20046;-79
2022/12/19 05:39:48;;;;;;;130.90;53.20;;;0.40;2201.60;;;;;;4844541;29;20382;-85
2022/12/19 05:42:14;;;;;;;132.48;51.42;;;0.40;2201.60;;;;;;4844534;29;20044;-79
2022/12/19 05:44:39;;;;;;;;;;;0.40;2201.60;;;;;;4828391;29;20030;-87
2022/12/19 05:47:05;;;;;;;133.23;54.28;;;0.50;2201.60;;;;;;4827700;29;20325;-79
2022/12/19 05:49:31;;;;;;;;;;;0.30;2201.60;;;;;;4828696;29;20073;-84
2022/12/19 05:51:56;;;;;;;148.68;57.28;;;0.10;2201.60;;;;;;4827832;29;19908;-84
2022/12/19 05:54:22;;;;;;;;;;;0.00;2201.60;;;;;;4828391;29;20032;-83
2022/12/19 05:56:48;;;;;;;161.27;57.67;;;12.90;2201.60;;;;;;4827799;29;19920;-81
2022/12/19 05:59:13;;;;;;;;;;;13.00;2201.60;;;;;;4828326;29;20153;-83
2022/12/19 06:01:39;;;;;;;122.18;43.88;;;12.90;2201.60;;;;;;4828173;29;20369;-89
2022/12/19 06:04:06;;;;;;;;;;;12.90;2201.60;;;;;;4828336;29;20026;-84
2022/12/19 06:06:32;;;;;;;71.25;28.95;;;12.90;2201.60;;;;;;4828196;29;19908;-82
2022/12/19 06:08:58;;;;;;;;;;;13.20;2201.60;;;;;;4844115;29;20042;-86
2022/12/19 06:11:25;;;;;;;90.15;37.40;;;13.20;2201.60;;;;;;4844182;29;19912;-83
2022/12/19 06:13:51;;;;;;;127.30;44.17;;;13.30;2201.60;;;;;;4828053;29;20101;-88
2022/12/19 06:16:19;;;;;;;125.75;43.00;;;13.40;2201.60;;;;;;4827398;29;20193;-86
2022/12/19 06:18:46;;;;;;;117.93;41.00;;;13.40;2201.60;;;;;;4828100;29;20038;-87
2022/12/19 06:21:17;;;;;;;166.15;45.47;;;13.40;2201.60;;;;;;4827889;29;20026;-84
2022/12/19 06:23:43;;;;;;;179.63;47.15;;;13.50;2201.60;;;;;;4828340;29;20114;-86
2022/12/19 06:26:11;;;;;;;156.80;45.83;;;13.70;2201.60;;;;;;4827200;29;20098;-79
2022/12/19 06:28:37;;;;;;;136.00;49.38;;;13.60;2201.60;;;;;;4827299;29;20382;-83
2022/12/19 06:31:03;;;;;;;;;;;13.50;2201.60;;;;;;4828052;29;20037;-82
2022/12/19 06:33:30;;;;;;;110.78;33.67;;;13.50;2201.60;;;;;;4827540;29;20361;-84
2022/12/19 06:36:06;;;;;;;184.65;47.15;;;13.50;2201.60;;;;;;4827195;29;20154;-84
2022/12/19 06:38:33;;;;;;;133.40;43.92;;;13.70;2201.60;;;;;;4827323;29;20077;-84
2022/12/19 06:43:44;;;;;;;121.72;44.25;;;13.50;2201.60;;;;;;4844399;29;20053;-82
2022/12/19 06:46:10;;;;;;;;;;;13.40;2201.60;;;;;;4836888;29;20034;-84
2022/12/19 06:48:37;;;;;;;107.10;38.28;;;13.40;2201.60;;;;;;4854991;29;19969;-83
2022/12/19 06:51:03;;;;;;;108.55;42.92;;;13.50;2201.60;;;;;;4841863;29;20124;-89
2022/12/19 06:53:28;;;;;;;;;;;13.30;2201.60;;;;;;4841156;29;20151;-81
2022/12/19 06:55:56;;;;;;;111.78;38.17;;;13.50;2201.60;;;;;;4840767;29;19919;-83
2022/12/19 06:58:22;;;;;;;89.38;37.72;;;13.60;2201.60;;;;;;4841107;29;20042;-81
2022/12/19 07:00:48;;;;;;;91.65;35.95;;;13.50;2201.60;;;;;;4843965;29;20028;-83
2022/12/19 07:03:16;;;;;;;;;;;13.60;2201.60;;;;;;4860769;29;20030;-83
2022/12/19 07:05:41;;;;;;;75.68;32.75;;;13.40;2201.60;;;;;;4843599;29;19912;-84
2022/12/19 07:08:08;;;;;;;;;;;13.20;2201.60;;;;;;4842919;29;20048;-91
2022/12/19 07:10:34;;;;;;;55.50;24.13;;;13.50;2201.60;;;;;;4837997;29;19916;-85
2022/12/19 07:12:59;;;;;;;;;;;13.40;2201.60;;;;;;4837323;29;20047;-84
2022/12/19 07:15:26;;;;;;;75.90;33.75;;;13.40;2201.60;;;;;;4836238;29;19938;-81
2022/12/19 07:17:52;;;;;;;83.68;32.95;;;13.30;2201.60;;;;;;4835745;29;20040;-87
2022/12/19 07:20:19;;;;;;;80.68;32.75;;;13.40;2201.60;;;;;;4856237;29;20128;-88
2022/12/19 07:22:45;;;;;;;78.07;33.08;;;13.30;2201.60;;;;;;4842704;29;20033;-94
2022/12/19 07:25:11;;;;;;;85.95;32.20;;;13.00;2201.60;;;;;;4837758;29;20029;-83
2022/12/19 07:27:37;;;;;;;;;;;13.00;2201.60;;;;;;4843848;29;20076;-89
2022/12/19 07:30:04;;;;;;;69.78;28.58;;;0.00;2201.60;;;;;;4837146;29;19952;-86
2022/12/19 07:32:30;;;;;;;71.15;31.50;;;0.00;2201.60;;;;;;4841763;29;20041;-92
2022/12/19 07:34:56;;;;;;;;;;;0.10;2201.60;;;;;;4845159;29;20044;-79
2022/12/19 07:37:21;;;;;;;87.75;36.25;;;0.10;2201.60;;;;;;4838233;29;19921;-89
2022/12/19 07:39:47;;;;;;;;;;;0.20;2201.60;;;;;;4844921;29;20029;-88
2022/12/19 07:42:13;;;;;;;83.70;36.55;;;0.10;2201.60;;;;;;4838454;29;20380;-89
2022/12/19 07:44:39;;;;;;;;;;;0.40;2201.60;;;;;;4834646;29;20132;-84
2022/12/19 07:47:07;;;;;;;86.45;40.25;;;0.60;2201.60;;;;;;4855966;29;20004;-86
2022/12/19 07:49:33;;;;;;;102.63;44.75;;;0.80;2201.60;;;;;;4840321;29;20505;-81
2022/12/19 07:51:59;;;;;;;;;;;0.90;2201.60;;;;;;4845256;29;20064;-88
2022/12/19 07:54:24;;;;;;;94.00;39.00;;;25.70;2201.60;;;;;;4844407;29;19912;-78
2022/12/19 07:56:50;;;;;;;;;;;25.70;2201.60;;;;;;4847546;29;20618;-85
2022/12/19 07:59:15;;;;;;;94.72;41.72;;;25.80;2201.60;;;;;;4841742;29;19912;-84
2022/12/19 08:01:41;;;;;;;;;;;26.00;2201.60;;;;;;4839187;29;20513;-85
2022/12/19 08:04:07;;;;;;;101.60;45.60;;;26.00;2201.60;;;;;;4846048;29;20384;-82
2022/12/19 08:06:33;;;;;;;;;;;25.90;2201.60;;;;;;4843191;29;20476;-82
2022/12/19 08:08:58;;;;;;;122.80;49.97;;;26.00;2201.60;;;;;;4835192;29;19908;-86
2022/12/19 08:11:28;;;;;;;;;;;26.00;2201.60;;;;;;4843907;29;20547;-79
2022/12/19 08:13:55;;;;;;;79.65;37.30;;;26.00;2201.60;;;;;;4855151;29;20254;-79
2022/12/19 08:16:21;;;;;;;75.88;33.20;;;26.20;2201.60;;;;;;4843345;29;20029;-79
2022/12/19 08:18:47;;;;;;;75.50;35.80;;;26.20;2201.60;;;;;;4847908;29;20101;-79
2022/12/19 08:21:13;;;;;;;;;;;26.10;2201.60;;;;;;4845820;29;20482;-86
2022/12/19 08:23:39;;;;;;;77.93;33.45;;;26.10;2201.60;;;;;;4862843;29;19915;-86
2022/12/19 08:26:14;;;;;;;79.63;36.83;;;26.20;2201.60;;;;;;4837261;29;20038;-88
2022/12/19 08:28:42;;;;;;;82.78;35.90;;;26.00;2201.60;;;;;;4857564;29;20023;-87
2022/12/19 08:31:13;;;;;;;80.85;35.28;;;26.40;2201.60;;;;;;4840679;29;20045;-81
2022/12/19 08:33:39;;;;;;;91.25;38.00;;;26.20;2201.60;;;;;;4846266;29;20030;-81
2022/12/19 08:36:06;;;;;;;;;;;26.20;2201.60;;;;;;4858213;29;20029;-82
2022/12/19 08:38:32;;;;;;;89.97;33.95;;;26.30;2201.60;;;;;;4847931;29;19924;-81
2022/12/19 08:40:58;;;;;;;;;;;26.30;2201.60;;;;;;4841966;29;20034;-75
2022/12/19 08:43:24;;;;;;;102.10;43.75;;;26.20;2201.60;;;;;;4864647;29;20373;-86
2022/12/19 08:45:50;;;;;;;111.03;43.15;;;26.40;2201.60;;;;;;4844107;29;20105;-81
2022/12/19 08:48:16;;;;;;;;;;;26.40;2201.60;;;;;;4839699;29;20082;-80
2022/12/19 08:50:53;;;;;;;121.63;46.53;;;26.50;2201.60;;;;;;4843111;29;19924;-82
2022/12/19 08:53:20;;;;;;;107.40;48.17;;;51.20;2227.20;;;;;;4845799;29;20034;-81
2022/12/19 08:55:47;;;;;;;115.65;47.47;;;51.30;2227.20;;;;;;4843799;29;20082;-83
2022/12/19 08:58:13;;;;;;;102.40;44.13;;;51.40;2227.20;;;;;;4860380;29;20059;-79
2022/12/19 09:00:39;;;;;;;;;;;51.60;2227.20;;;;;;4846727;29;20116;-80
2022/12/19 09:03:04;;;;;;;105.45;44.08;;;51.60;2227.20;;;;;;4845360;29;20365;-82
2022/12/19 09:05:30;;;;;;;;;;;51.70;2227.20;;;;;;4833747;29;20376;-82
2022/12/19 09:07:56;;;;;;;98.90;41.08;;;51.90;2227.20;;;;;;4859930;29;19908;-82
2022/12/19 09:10:21;;;;;;;;;;;51.90;2227.20;;;;;;4839789;29;20055;-79
2022/12/19 09:12:47;;;;;;;99.55;43.17;;;52.00;2227.20;;;;;;4836861;29;20363;-81
2022/12/19 09:15:12;;;;;;;;;;;52.10;2227.20;;;;;;4841049;29;20038;-76
2022/12/19 09:17:38;;;;;;;102.88;41.78;;;76.80;2227.20;;;;;;4850870;29;20023;-77
2022/12/19 09:20:04;;;;;;;;;;;76.90;2227.20;;;;;;4841532;29;20034;-79
2022/12/19 09:22:30;;;;;;;91.82;39.50;;;76.90;2227.20;;;;;;4840432;29;20242;-79
2022/12/19 09:24:56;;;;;;;;;;;76.80;2227.20;;;;;;4841636;29;20026;-82
2022/12/19 09:27:22;;;;;;;94.88;39.30;;;52.00;2227.20;;;;;;4840927;29;20422;-80
2022/12/19 09:29:48;;;;;;;102.35;41.83;;;76.80;2227.20;;;;;;4859093;29;20041;-84
2022/12/19 09:32:14;;;;;;;;;;;76.90;2227.20;;;;;;4841623;29;20048;-81
2022/12/19 09:34:39;;;;;;;94.47;38.15;;;77.10;2227.20;;;;;;4843434;29;20377;-80
2022/12/19 09:37:06;;;;;;;;;;;77.20;2227.20;;;;;;4853478;29;20046;-79
2022/12/19 09:39:33;;;;;;;76.88;29.90;;;77.10;2227.20;;;;;;4845578;29;19912;-81
2022/12/19 09:42:29;;;;;;;87.65;37.03;;;77.00;2227.20;;;;;;4841320;29;20033;-81
2022/12/19 09:44:58;;;;;;;96.30;40.63;;;77.00;2227.20;;;;;;4856980;29;20077;-83
2022/12/19 09:47:31;;;;;;;102.35;41.38;;;76.90;2227.20;;;;;;4842310;29;20575;-79
2022/12/19 09:49:59;;;;;;;95.90;39.40;;;76.90;2227.20;;;;;;4835558;29;20046;-81
2022/12/19 09:52:49;;;;;;;98.20;39.63;;;76.80;2227.20;;;;;;4840089;29;20501;-84
2022/12/19 09:55:15;;;;;;;91.80;36.50;;;76.90;2227.20;;;;;;4837766;29;20116;-84
2022/12/19 09:57:45;;;;;;;;;;;77.10;2227.20;;;;;;4855325;29;20588;-82
2022/12/19 10:00:14;;;;;;;91.40;35.05;;;77.10;2227.20;;;;;;4836604;29;19965;-80
2022/12/19 10:02:55;;;;;;;87.15;38.58;;;77.20;2227.20;;;;;;4838772;29;20027;-79
2022/12/19 10:05:40;;;;;;;80.78;37.38;;;77.40;2227.20;;;;;;4834608;29;20077;-78
2022/12/19 10:08:35;;;;;;;86.75;35.83;;;77.20;2227.20;;;;;;4852872;29;20041;-82
2022/12/19 10:11:09;;;;;;;80.75;38.17;;;77.30;2227.20;;;;;;4840613;29;20369;-80
2022/12/19 10:14:00;;;;;;;90.63;38.13;;;77.40;2227.20;;;;;;4841424;29;20025;-77
2022/12/19 10:16:34;;;;;;;86.25;35.85;;;77.60;2227.20;;;;;;4839913;29;20040;-79
2022/12/19 10:19:04;;;;;;;85.68;38.30;;;77.70;2227.20;;;;;;4840253;29;20487;-80
2022/12/19 10:21:54;;;;;;;88.72;35.72;;;102.40;2227.20;;;;;;4835013;29;20029;-79
2022/12/19 10:24:50;;;;;;;88.30;38.55;;;102.40;2227.20;;;;;;4836889;29;20042;-79
2022/12/19 10:27:37;;;;;;;90.55;37.92;;;102.40;2227.20;;;;;;4837490;29;20038;-78
2022/12/19 10:30:06;;;;;;;;;;;102.40;2227.20;;;;;;4838576;29;20479;-83
2022/12/19 10:33:00;;;;;;;88.70;37.83;;;102.70;2227.20;;;;;;4842162;29;19913;-82
2022/12/19 10:35:41;;;;;;;87.68;38.85;;;102.80;2227.20;;;;;;4848205;29;20056;-83
2022/12/19 10:38:20;;;;;;;84.78;37.10;;;102.80;2227.20;;;;;;4842429;29;20067;-81
2022/12/19 10:41:05;;;;;;;79.88;37.50;;;103.20;2227.20;;;;;;4839772;29;20147;-79
2022/12/19 10:43:53;;;;;;;82.07;35.53;;;128.00;2252.80;;;;;;4850153;29;20036;-81
2022/12/19 10:46:48;;;;;;;87.30;37.50;;;128.40;2252.80;;;;;;4840440;29;20125;-79
2022/12/19 10:49:26;;;;;;;80.80;36.95;;;128.90;2252.80;;;;;;4830360;29;20509;-79
2022/12/19 10:51:59;;;;;;;73.35;34.15;;;153.80;2252.80;;;;;;4843585;29;20037;-78
2022/12/19 10:54:36;;;;;;;82.30;36.08;;;153.70;2252.80;;;;;;4840205;29;20386;-78
2022/12/19 10:57:20;;;;;;;73.72;33.00;;;153.80;2252.80;;;;;;4844059;29;20498;-79
2022/12/19 10:59:57;;;;;;;71.38;33.15;;;154.10;2252.80;;;;;;4833222;29;20030;-78
2022/12/19 11:02:44;;;;;;;70.68;33.10;;;153.80;2252.80;;;;;;4838659;29;20037;-76
2022/12/19 11:05:22;;;;;;;;;;;153.80;2252.80;;;;;;4843380;29;20066;-76
2022/12/19 11:08:18;;;;;;;69.55;31.20;;;153.80;2252.80;;;;;;4852519;29;19938;-79
2022/12/19 11:10:53;;;;;;;74.45;30.92;;;128.80;2252.80;;;;;;4835061;29;20479;-76
2022/12/19 11:13:44;;;;;;;78.88;33.95;;;128.70;2252.80;;;;;;4838049;29;20033;-80
2022/12/19 11:16:11;;;;;;;62.83;28.45;;;128.70;2252.80;;;;;;4834291;29;20070;-81
2022/12/19 11:18:41;;;;;;;73.25;32.53;;;128.70;2252.80;;;;;;4844776;29;20080;-88
2022/12/19 11:21:30;;;;;;;73.65;33.05;;;128.90;2252.80;;;;;;4838168;29;20479;-82
2022/12/19 11:24:11;;;;;;;72.38;32.35;;;128.70;2252.80;;;;;;4839017;29;20029;-82
2022/12/19 11:26:43;;;;;;;71.13;33.53;;;128.80;2252.80;;;;;;4838175;29;20487;-87
2022/12/19 11:29:43;;;;;;;72.25;33.75;;;128.80;2252.80;;;;;;4840436;29;20021;-82
2022/12/19 11:32:24;;;;;;;79.38;33.55;;;153.60;2252.80;;;;;;4796832;29;20142;-87
2022/12/19 11:34:50;;;;;;;83.65;37.45;;;153.80;2252.80;;;;;;4798223;29;20046;-85
2022/12/19 11:37:26;;;;;;;;;;;153.70;2252.80;;;;;;4798455;29;20042;-80
2022/12/19 11:40:05;;;;;;;89.53;38.47;;;153.80;2252.80;;;;;;4796818;29;21156;-83
2022/12/19 11:42:43;;;;;;;74.97;36.03;;;128.90;2252.80;;;;;;4797383;29;20038;-87
2022/12/19 11:45:26;;;;;;;84.07;37.30;;;128.90;2252.80;;;;;;4803695;29;20045;-87
2022/12/19 11:48:00;;;;;;;88.43;36.78;;;128.20;2252.80;;;;;;4793550;29;20050;-87
2022/12/19 11:50:30;;;;;;;80.47;36.30;;;128.20;2252.80;;;;;;4812404;29;20039;-87
2022/12/19 11:53:22;;;;;;;74.82;33.17;;;103.30;2227.20;;;;;;4807118;29;20118;-86
2022/12/19 11:56:09;;;;;;;73.65;34.70;;;102.90;2227.20;;;;;;4804126;29;20034;-82
2022/12/19 11:58:35;;;;;;;76.70;34.80;;;102.90;2227.20;;;;;;4794556;29;20051;-84
2022/12/19 12:01:22;;;;;;;;;;;102.80;2227.20;;;;;;4816089;29;20114;-86
2022/12/19 12:04:07;;;;;;;81.30;34.03;;;102.70;2227.20;;;;;;4792948;29;19920;-79
2022/12/19 12:06:45;;;;;;;83.75;36.58;;;102.50;2227.20;;;;;;4806915;29;20134;-84
2022/12/19 12:09:16;;;;;;;82.47;35.60;;;102.50;2227.20;;;;;;4843112;29;20112;-86
2022/12/19 12:11:47;;;;;;;89.95;37.70;;;102.50;2227.20;;;;;;4834841;29;20038;-83
2022/12/19 12:14:28;;;;;;;90.32;39.35;;;102.40;2227.20;;;;;;4832811;29;20111;-83
2022/12/19 12:16:57;;;;;;;91.32;38.33;;;77.70;2227.20;;;;;;4840392;29;20042;-86
2022/12/19 12:19:49;;;;;;;76.50;33.83;;;77.70;2227.20;;;;;;4840202;29;20037;-86
2022/12/19 12:22:43;;;;;;;85.15;35.70;;;77.40;2227.20;;;;;;4835642;29;20475;-86
2022/12/19 12:25:14;;;;;;;76.13;34.00;;;77.10;2227.20;;;;;;4839028;29;20065;-83
2022/12/19 12:28:13;;;;;;;84.47;34.95;;;77.00;2227.20;;;;;;4841738;29;20041;-83
2022/12/19 12:31:03;;;;;;;78.40;33.03;;;77.10;2227.20;;;;;;4856274;29;20079;-82
2022/12/19 12:34:05;;;;;;;87.72;35.85;;;77.20;2227.20;;;;;;4846970;29;20467;-83
2022/12/19 12:36:39;;;;;;;82.80;33.92;;;77.10;2227.20;;;;;;4840740;29;20077;-82
2022/12/19 12:39:18;;;;;;;90.95;35.50;;;77.10;2227.20;;;;;;4837534;29;20082;-82
2022/12/19 12:42:03;;;;;;;87.55;34.60;;;76.90;2227.20;;;;;;4850842;29;20029;-84
2022/12/19 12:44:35;;;;;;;81.60;32.15;;;52.10;2227.20;;;;;;4842012;29;20030;-83
2022/12/19 12:47:28;;;;;;;83.55;34.58;;;77.20;2227.20;;;;;;4863494;29;20055;-82
2022/12/19 12:49:59;;;;;;;95.75;38.42;;;76.90;2227.20;;;;;;4828606;29;20208;-89
2022/12/19 12:52:39;;;;;;;95.05;35.17;;;52.10;2227.20;;;;;;4847665;29;20121;-86
2022/12/19 12:55:38;;;;;;;98.10;34.15;;;52.10;2227.20;;;;;;4838990;29;20030;-83